Lostant, Illinois
Current Conditions -  °F | °C
As of 3:55 PM on Friday 24 Oct 2014 (Local Time) from KVYS Reporting Station
Clear Clear  
Wind Chill: 20°   Ceiling: Unl
Heat Index: 20°   Visibility: 10mi
Dew Point: 10°   Wind: 10mph
Humidity: 50%   Direction: 230°SW
Pressure: 29.97"   Gusts: 16mph
Location:  41.14°N, 89.06°W
Report Text: KVYS 242055Z AUTO 23009G14KT 10SM CLR 21/10 A2997 RMK AO2 T02050098
Loading
Personal Weather Stations






























Interactive Weather Map
Tropical Storm Tracking
New forecast layout! Learn more

10-Day Weather Forecast

Advertisements
Track Severe Weather on mobile